KBEDKMDT

Guest
Details From KBED - Laurence G Hanscom Fld
To KMDT - Harrisburg Intl
Flight Number -
Tags Generated
Created
Modified
Stats Distance 282 nm / 522 km
Max Altitude 0 ft / 0 m
Waypoints 3
Social Downloads 0
Likes 0
Share VATSIM

Download

Looking for another format? Having issues loading an existing format? Contact us
Advertisement - Login to hide

Notes

Generated

Route

KBED CURNA KMDT

ID Type Via Altitude Latitude Longitude Leg Dist Tot Dist Heading (true) Name
O KBED APT - 0 ft / 0 m 42.46344˚ -71.29687˚ - 0 nm - -
CURNA FIX - 0 ft / 0 m 40.28372˚ -76.59625˚ 272 nm 272 nm 243° / 240° -
O KMDT APT - 0 ft / 0 m 40.19938˚ -76.77860˚ 9 nm 282 nm 239° / 239° -

Altitude Profile

Advertisement - Login to hide

Weather


0- 5 10 15 20 25 30 35+ Temperature / ° C

Clouds and Precipitation
Forecast for 2018-05-23 18:00 UTC. Updated 22 minutes ago

Ground ~20,000 ft ~40,000 ft Winds

KBED

Details ICAO KBED (BED)
Name Laurence G Hanscom Field
Region United States
Timezone America/New_York (UTC-4.0)
Stats Elevation 133 ft / 41 m (AMSL)
Location 42.469826° -71.289318°
Runways 2
Magnetic Variation 14.558° W

METAR

KBED 231656Z 33007KT 10SM CLR 26/13 A2986 RMK AO2 SLP122 T02560133

Decode

TAF

KBED 231133Z 2312/2412 26005KT P6SM BKN100 FM231400 32006KT P6SM SCT250 FM232100 30009KT P6SM FEW250 FM240200 35004KT P6SM SCT150 FM240600 00000KT P6SM FEW200 FM241100 07003KT P6SM SCT150

Decode

Departure Runways

ID Width Length Bearing (true) Bearing (mag) Surface Threshold Offset Overrun Length
05 151 ft / 46 m 5,105 ft / 1,556 m 37.02° 51.58° Asphalt 0 ft / 0 m 584 ft / 178 m
11 151 ft / 46 m 6,985 ft / 2,129 m 97.16° 111.72° Asphalt 0 ft / 0 m 1,001 ft / 305 m
23 151 ft / 46 m 5,105 ft / 1,556 m 217.03° 231.59° Asphalt 0 ft / 0 m 899 ft / 274 m
29 151 ft / 46 m 6,985 ft / 2,129 m 277.18° 291.74° Asphalt 0 ft / 0 m 1,040 ft / 317 m

KMDT

Details ICAO KMDT (MDT)
Name HARRISBURG INTL
Region United States
Timezone America/New_York (UTC-4.0)
Stats Elevation 310 ft / 94 m (AMSL)
Location 40.193191° -76.762619°
Runways 1
Magnetic Variation 11.274° W

METAR

KMDT 231656Z 35012G17KT 10SM BKN060 23/16 A3003 RMK AO2 SLP169 T02330156

Decode

TAF

KMDT 231534Z 2316/2412 32010KT P6SM BKN050 FM240000 30005KT P6SM SKC

Decode

Destination Runways

ID Width Length Bearing (true) Bearing (mag) Surface Threshold Offset Overrun Length
13 200 ft / 61 m 9,987 ft / 3,044 m 116.86° 128.13° Asphalt 993 ft / 303 m 0 ft / 0 m
31 200 ft / 61 m 9,987 ft / 3,044 m 296.88° 308.15° Asphalt 994 ft / 303 m 0 ft / 0 m

Approach Navaids

Runway Type Ident Frequency Range Bearing (true) Bearing (mag) Slope Elevation
13 Localiser IMDT 110.90 MHz 18 nm / 33 km 116.88° 128.16° - 310 ft / 94 m (AMSL)
13 Glidescope IMDT 110.90 MHz 10 nm / 19 km 116.87° 128.14° 3.00° 306 ft / 93 m (AMSL)
31 Localiser IHQA 110.90 MHz 18 nm / 33 km 296.86° 308.13° - 310 ft / 94 m (AMSL)
31 Glidescope IHQA 110.90 MHz 10 nm / 19 km 296.87° 308.14° 3.00° 306 ft / 93 m (AMSL)